Airfield :
LOGIN :

Register | Disclaimer

   EN    FR    IT 

 










Legend :    VFR   Marginal VFR   IFR   Intensive IFR   Very Intensive IFR
Visi :
Ceiling :
>= 8 km
>= 3000ft
5 to 8 km
1000 to 3000 ft
1500m to 5 km
500 to 1000 ft
800 to 1500m
200 to 500 ft
< 800m
< 200 ft
Symbols :   Thunderstorms  Fog  Heavy snow  Heavy precipitations  Wind > 20 kt
SIGMETs :     Misc.  Thunderstorms  Icing  Turbulence  Mountain Waves  Volcanic Ashes







- Airport Elevation : 446 ft
- IATA code : VNE
- Download approach charts


LFRV - Vannes-Meucon

CURRENT METAR :
  • 191700Z AUTO 04011KT CAVOK 03/M03 Q1009

EXPIRED METARs :
  • 191630Z AUTO 04017KT CAVOK 04/M03 Q1009
  • 191600Z AUTO 04015KT CAVOK 05/M04 Q1009
  • 191530Z AUTO 03015KT CAVOK 06/M04 Q1009
  • 191500Z AUTO 03014KT CAVOK 06/M03 Q1009
  • 191430Z AUTO 04013KT CAVOK 07/M03 Q1009

TAF N/A
No reported NOTAMs for that airfield.



MET'MAP, your aeronautical weather chart ! - Copyright ORBIFLY December 2007 - Disclaimer

ORBIFLY MET'MAP TEAM :

Programming & Development : Alexandra Zaïnal
Concept & Development : Baudouin d'Aumeries
Co-Development & Prog : Marc-Olivier Méhu
Technical & hardware support : Manuel Goepfert

Contact : metmap@orbifly.com




SOURCES & CREDITS :

   NOAA